Portada
METAR-TAF:

METAR-TAF

Aeroports :

Albert Whitted Airport

Saint Petersburg, Florida, Estats Units d'Amèrica

latitud: 27-46-04N, longitud: 082-37-34W, altitud: 2 m

Observació

L'informe es va fer fa 25 minuts, a les 21:53 UTC
Vent 12 kt del Nord-Oest amb ràfegues de 17 kt
Temperatura 16°C
Humitat 55%
Pressió 1023 hPa
Visibilitat: 16.1 km
Cel clar

METAR: KSPG 282153Z 31012G17KT 10SM CLR 16/07 A3021 RMK AO2 SLP230 T01560067

Hora: 17:18 (22:18 UTC)


TAF: manca

Observacions i pronòstics meteorològics de més de 4000 aeroports (METAR i TAF).

Les estacions disponibles són els punts grocs i vermells al mapa.

Posi el ratolí al punt desitjat per veure el nom de l'estació.

Feu clic per veure les observacions i els pronòstics meteorològics.

Per canviar el mapa: feu clic els botons verds amb una creu de color negre per apropar; al botó verd amb un guió per allunyar la imatge; o en les fletxes verdes per a mapes adjacents.


METAR-TAF: